createdAt,value
2023-03-20T00:00:16.343Z,1.50
2023-03-20T00:03:18.237Z,1.40
2023-03-20T00:06:24.633Z,1.30
2023-03-20T00:09:26.599Z,1.50
2023-03-20T00:12:28.029Z,1.23
2023-03-20T00:15:37.921Z,1.30
2023-03-20T00:18:41.794Z,1.33
2023-03-20T00:21:45.821Z,1.50
2023-03-20T00:24:47.425Z,1.40
2023-03-20T00:27:49.199Z,1.20
2023-03-20T00:30:51.902Z,1.40
2023-03-20T00:33:56.063Z,1.33
2023-03-20T00:36:58.036Z,1.33
2023-03-20T00:39:59.513Z,1.43
2023-03-20T00:43:03.120Z,1.40
2023-03-20T00:46:04.681Z,1.60
2023-03-20T00:49:06.354Z,1.67
2023-03-20T00:52:12.470Z,1.50
2023-03-20T00:55:13.962Z,1.57
2023-03-20T00:58:15.772Z,1.90
2023-03-20T01:01:17.975Z,1.40
2023-03-20T01:04:20.624Z,1.73
2023-03-20T01:07:22.129Z,1.27
2023-03-20T01:10:30.251Z,1.40
2023-03-20T01:13:32.632Z,1.53
2023-03-20T01:16:34.087Z,1.60
2023-03-20T01:19:36.417Z,1.60
2023-03-20T01:22:37.804Z,1.40
2023-03-20T01:25:39.437Z,1.90
2023-03-20T01:28:40.874Z,1.50
2023-03-20T01:31:42.488Z,1.70
2023-03-20T01:34:44.299Z,1.53
2023-03-20T01:37:46.042Z,1.60
2023-03-20T01:40:54.774Z,1.60
2023-03-20T01:43:57.153Z,1.70
2023-03-20T01:47:00.025Z,1.50
2023-03-20T01:50:23.981Z,1.50
2023-03-20T01:53:30.188Z,1.50
2023-03-20T01:56:42.798Z,1.73
2023-03-20T02:00:13.541Z,1.80
2023-03-20T02:03:19.110Z,1.90
2023-03-20T02:06:50.784Z,1.90
2023-03-20T02:09:57.832Z,1.90
2023-03-20T02:13:11.152Z,2.10
2023-03-20T02:16:20.339Z,1.73
2023-03-20T02:20:12.474Z,1.70
2023-03-20T02:23:34.076Z,2.20
2023-03-20T02:26:56.345Z,2.40
2023-03-20T02:30:42.775Z,2.10
2023-03-20T02:33:56.872Z,2.37
2023-03-20T02:37:16.994Z,2.20
2023-03-20T02:40:38.439Z,1.93
2023-03-20T02:43:50.143Z,2.33
2023-03-20T02:47:23.956Z,2.10
2023-03-20T02:50:50.002Z,2.20
2023-03-20T02:53:55.403Z,2.40
2023-03-20T02:57:15.910Z,2.60
2023-03-20T03:00:28.422Z,2.43
2023-03-20T03:03:38.386Z,2.87
2023-03-20T03:06:44.115Z,2.60
2023-03-20T03:09:52.501Z,2.90
2023-03-20T03:12:56.057Z,2.57
2023-03-20T03:16:04.224Z,2.90
2023-03-20T03:19:10.427Z,2.20
2023-03-20T03:22:12.487Z,2.90
2023-03-20T03:25:13.974Z,2.50
2023-03-20T03:28:26.242Z,2.70
2023-03-20T03:31:29.883Z,2.97
2023-03-20T03:34:33.146Z,2.77
2023-03-20T03:38:12.674Z,2.93
2023-03-20T03:41:24.883Z,2.90
2023-03-20T03:44:35.391Z,3.00
2023-03-20T03:48:18.888Z,3.17
2023-03-20T03:51:24.876Z,2.73
2023-03-20T03:55:00.133Z,3.00
2023-03-20T03:58:09.239Z,3.20
2023-03-20T04:01:13.019Z,3.03
2023-03-20T04:04:16.453Z,3.33
2023-03-20T04:07:18.221Z,3.70
2023-03-20T04:10:19.678Z,3.80
2023-03-20T04:13:21.114Z,3.60
2023-03-20T04:16:24.492Z,3.60
2023-03-20T04:19:25.985Z,3.40
2023-03-20T04:22:27.867Z,3.47
2023-03-20T04:25:32.215Z,3.83
2023-03-20T04:28:33.803Z,3.87
2023-03-20T04:31:57.042Z,3.77
2023-03-20T04:35:13.526Z,4.00
2023-03-20T04:38:26.908Z,4.13
2023-03-20T04:41:29.477Z,4.30
2023-03-20T04:44:32.628Z,4.00
2023-03-20T04:47:36.596Z,4.60
2023-03-20T04:50:39.258Z,4.27
2023-03-20T04:53:41.027Z,4.10
2023-03-20T04:56:42.708Z,3.93
2023-03-20T04:59:55.244Z,4.87
2023-03-20T05:02:57.052Z,4.57
2023-03-20T05:05:59.073Z,5.03
2023-03-20T05:09:00.933Z,4.87
2023-03-20T05:12:05.472Z,4.73
2023-03-20T05:15:33.984Z,4.53
2023-03-20T05:19:02.238Z,4.70
2023-03-20T05:22:39.567Z,4.70
2023-03-20T05:25:48.809Z,4.90
2023-03-20T05:29:10.577Z,4.70
2023-03-20T05:32:30.450Z,4.40
2023-03-20T05:35:54.784Z,4.90
2023-03-20T05:39:07.667Z,5.37
2023-03-20T05:42:31.992Z,4.87
2023-03-20T05:45:56.664Z,5.10
2023-03-20T05:49:21.268Z,5.40
2023-03-20T05:52:49.301Z,5.90
2023-03-20T05:56:10.998Z,6.20
2023-03-20T05:59:15.376Z,6.30
2023-03-20T06:02:26.424Z,5.87
2023-03-20T06:05:37.954Z,6.10
2023-03-20T06:08:39.645Z,5.90
2023-03-20T06:11:41.369Z,6.57
2023-03-20T06:14:43.856Z,6.20
2023-03-20T06:17:46.386Z,6.17
2023-03-20T06:20:53.565Z,6.00
2023-03-20T06:23:55.275Z,6.07
2023-03-20T06:26:58.691Z,6.80
2023-03-20T06:30:01.462Z,6.40
2023-03-20T06:33:07.696Z,6.33
2023-03-20T06:36:25.860Z,6.60
2023-03-20T06:39:33.913Z,6.27
2023-03-20T06:42:36.386Z,6.90
2023-03-20T06:45:39.966Z,6.17
2023-03-20T06:48:52.050Z,6.50
2023-03-20T06:51:53.852Z,6.90
2023-03-20T06:54:59.699Z,7.57
2023-03-20T06:58:01.212Z,7.40
2023-03-20T07:01:10.097Z,7.57
2023-03-20T07:04:11.946Z,7.03
2023-03-20T07:07:20.897Z,6.83
2023-03-20T07:10:23.593Z,7.10
2023-03-20T07:13:28.251Z,7.73
2023-03-20T07:16:31.258Z,7.27
2023-03-20T07:19:32.746Z,7.70
2023-03-20T07:22:34.208Z,7.87
2023-03-20T07:25:50.437Z,7.80
2023-03-20T07:28:54.444Z,7.60
2023-03-20T07:32:00.991Z,7.60
2023-03-20T07:35:07.613Z,8.00
2023-03-20T07:38:09.099Z,8.33
2023-03-20T07:41:20.189Z,7.83
2023-03-20T07:44:32.723Z,8.27
2023-03-20T07:47:36.361Z,8.97
2023-03-20T07:50:39.534Z,8.97
2023-03-20T07:53:41.330Z,9.77
2023-03-20T07:56:43.470Z,9.47
2023-03-20T07:59:45.746Z,9.67
2023-03-20T08:02:47.273Z,10.00
2023-03-20T08:05:48.811Z,9.87
2023-03-20T08:08:52.434Z,9.70
2023-03-20T08:11:53.834Z,10.10
2023-03-20T08:14:55.403Z,10.23
2023-03-20T08:17:58.670Z,10.23
2023-03-20T08:21:00.318Z,9.97
2023-03-20T08:24:01.820Z,10.47
2023-03-20T08:27:03.728Z,10.80
2023-03-20T08:30:05.526Z,10.80
2023-03-20T08:33:07.259Z,10.67
2023-03-20T08:36:08.943Z,10.23
2023-03-20T08:39:10.668Z,10.50
2023-03-20T08:42:12.132Z,10.70
2023-03-20T08:45:13.678Z,11.27
2023-03-20T08:48:15.124Z,10.43
2023-03-20T08:51:16.600Z,11.30
2023-03-20T08:54:18.487Z,10.97
2023-03-20T08:57:19.991Z,10.90
2023-03-20T09:00:22.362Z,11.67
2023-03-20T09:03:23.764Z,11.27
2023-03-20T09:06:25.898Z,12.23
2023-03-20T09:09:29.322Z,10.70
2023-03-20T09:12:32.598Z,10.90
2023-03-20T09:15:35.472Z,11.20
2023-03-20T09:18:38.190Z,11.37
2023-03-20T09:21:39.602Z,11.23
2023-03-20T09:24:41.738Z,9.97
2023-03-20T09:27:43.334Z,11.47
2023-03-20T09:30:45.767Z,11.40
2023-03-20T09:33:47.367Z,11.57
2023-03-20T09:36:49.021Z,10.73
2023-03-20T09:39:50.744Z,11.17
2023-03-20T09:43:04.371Z,10.90
2023-03-20T09:46:11.959Z,9.97
2023-03-20T09:49:35.541Z,9.97
2023-03-20T09:52:58.271Z,9.87
2023-03-20T09:56:00.262Z,9.20
2023-03-20T09:59:04.940Z,8.30
2023-03-20T10:02:16.504Z,9.67
2023-03-20T10:05:26.656Z,8.80
2023-03-20T10:08:39.000Z,9.13
2023-03-20T10:12:08.437Z,9.73
2023-03-20T10:15:20.701Z,9.23
2023-03-20T10:18:27.947Z,9.27
2023-03-20T10:21:43.740Z,8.67
2023-03-20T10:24:51.228Z,8.27
2023-03-20T10:27:59.935Z,7.77
2023-03-20T10:31:30.159Z,8.20
2023-03-20T10:34:48.304Z,8.70
2023-03-20T10:38:23.656Z,8.10
2023-03-20T10:41:31.616Z,7.60
2023-03-20T10:44:42.132Z,7.17
2023-03-20T10:47:48.800Z,6.97
2023-03-20T10:51:00.297Z,7.07
2023-03-20T10:54:06.235Z,6.30
2023-03-20T10:57:15.253Z,6.57
2023-03-20T11:00:23.168Z,6.70
2023-03-20T11:03:28.349Z,5.70
2023-03-20T11:06:42.192Z,6.30
2023-03-20T11:09:43.760Z,5.80
2023-03-20T11:12:49.594Z,5.33
2023-03-20T11:15:53.432Z,5.73
2023-03-20T11:18:55.033Z,5.33
2023-03-20T11:22:00.150Z,5.47
2023-03-20T11:25:02.564Z,5.50
2023-03-20T11:28:31.287Z,5.23
2023-03-20T11:31:40.784Z,5.17
2023-03-20T11:34:43.396Z,5.47
2023-03-20T11:37:47.358Z,4.53
2023-03-20T11:40:52.376Z,5.40
2023-03-20T11:43:53.903Z,4.60
2023-03-20T11:47:04.532Z,4.80
2023-03-20T11:50:24.803Z,4.90
2023-03-20T11:53:31.065Z,5.00
2023-03-20T11:56:33.880Z,4.60
2023-03-20T11:59:36.913Z,5.47
2023-03-20T12:02:41.733Z,5.03
2023-03-20T12:05:43.216Z,4.50
2023-03-20T12:08:52.181Z,4.50
2023-03-20T12:12:00.209Z,4.00
2023-03-20T12:15:13.553Z,3.83
2023-03-20T12:18:35.941Z,3.87
2023-03-20T12:22:04.336Z,3.50
2023-03-20T12:25:26.888Z,3.37
2023-03-20T12:28:46.694Z,3.80
2023-03-20T12:32:34.733Z,3.07
2023-03-20T12:35:41.187Z,3.40
2023-03-20T12:38:44.334Z,3.30
2023-03-20T12:42:23.437Z,3.10
2023-03-20T12:45:44.196Z,3.10
2023-03-20T12:49:19.828Z,2.80
2023-03-20T12:52:33.804Z,2.80
2023-03-20T12:56:09.643Z,2.63
2023-03-20T12:59:27.290Z,2.10
2023-03-20T13:02:34.009Z,2.00
2023-03-20T13:05:36.380Z,2.00
2023-03-20T13:08:51.987Z,1.90
2023-03-20T13:12:08.700Z,1.70
2023-03-20T13:15:16.187Z,2.20
2023-03-20T13:18:29.826Z,1.90
2023-03-20T13:21:57.822Z,2.90
2023-03-20T13:25:10.340Z,1.87
2023-03-20T13:28:45.837Z,2.13
2023-03-20T13:31:58.262Z,1.70
2023-03-20T13:35:16.676Z,1.70
2023-03-20T13:38:24.430Z,3.33
2023-03-20T13:41:26.917Z,1.77
2023-03-20T13:44:31.469Z,1.60
2023-03-20T13:47:36.167Z,1.83
2023-03-20T13:50:49.435Z,1.60
2023-03-20T13:54:12.309Z,1.73
2023-03-20T13:57:53.957Z,1.53
2023-03-20T14:01:07.480Z,4.70
2023-03-20T14:04:18.202Z,2.30
2023-03-20T14:07:34.402Z,2.20
2023-03-20T14:10:37.277Z,2.00
2023-03-20T14:13:40.057Z,1.83
2023-03-20T14:16:42.018Z,1.80
2023-03-20T14:19:43.843Z,1.80
2023-03-20T14:22:46.305Z,1.90
2023-03-20T14:25:49.151Z,1.80
2023-03-20T14:29:01.148Z,1.90
2023-03-20T14:32:06.067Z,1.60
2023-03-20T14:35:07.389Z,1.60
2023-03-20T14:38:23.581Z,1.80
2023-03-20T14:41:39.815Z,1.50
2023-03-20T14:45:18.407Z,1.80
2023-03-20T14:48:37.836Z,1.33
2023-03-20T14:51:48.115Z,1.67
2023-03-20T14:54:54.332Z,1.30
2023-03-20T14:57:57.848Z,1.60
2023-03-20T15:01:05.324Z,1.47
2023-03-20T15:04:12.699Z,1.60
2023-03-20T15:07:26.672Z,1.40
2023-03-20T15:10:29.068Z,1.33
2023-03-20T15:13:31.239Z,1.37
2023-03-20T15:16:35.192Z,1.50
2023-03-20T15:19:39.863Z,1.60
2023-03-20T15:22:55.677Z,1.30
2023-03-20T15:26:00.357Z,1.47
2023-03-20T15:29:16.004Z,1.40
2023-03-20T15:32:18.003Z,1.63
2023-03-20T15:35:23.093Z,1.80
2023-03-20T15:38:30.326Z,1.80
2023-03-20T15:41:35.575Z,1.87
2023-03-20T15:44:39.852Z,1.80
2023-03-20T15:47:42.835Z,1.50
2023-03-20T15:50:53.544Z,1.60
2023-03-20T15:53:55.455Z,1.50
2023-03-20T15:57:00.860Z,1.60
2023-03-20T16:00:06.098Z,1.50
2023-03-20T16:03:14.970Z,1.73
2023-03-20T16:06:20.625Z,1.70
2023-03-20T16:09:23.171Z,2.10
2023-03-20T16:12:26.899Z,1.50
2023-03-20T16:15:31.500Z,1.70
2023-03-20T16:18:37.228Z,1.50
2023-03-20T16:21:43.364Z,1.60
2023-03-20T16:24:48.205Z,1.33
2023-03-20T16:27:51.806Z,1.40
2023-03-20T16:30:55.597Z,1.30
2023-03-20T16:34:05.480Z,1.60
2023-03-20T16:37:21.513Z,1.30
2023-03-20T16:40:37.066Z,1.40
2023-03-20T16:43:39.091Z,1.30
2023-03-20T16:47:20.797Z,1.70
2023-03-20T16:50:34.966Z,2.03
2023-03-20T16:53:41.969Z,1.57
2023-03-20T16:56:52.388Z,1.50
2023-03-20T17:00:00.935Z,1.60
2023-03-20T17:03:13.282Z,1.40
2023-03-20T17:06:23.408Z,1.50
2023-03-20T17:09:28.070Z,1.60
2023-03-20T17:12:32.292Z,1.30
2023-03-20T17:15:33.820Z,1.30
2023-03-20T17:18:36.695Z,1.30
2023-03-20T17:21:38.167Z,1.50
2023-03-20T17:24:39.577Z,1.80
2023-03-20T17:27:41.552Z,1.60
2023-03-20T17:30:42.958Z,1.47
2023-03-20T17:33:45.497Z,1.40
2023-03-20T17:36:48.205Z,1.63
2023-03-20T17:39:50.153Z,1.43
2023-03-20T17:42:51.552Z,2.10
2023-03-20T17:45:53.023Z,1.47
2023-03-20T17:49:06.902Z,1.50
2023-03-20T17:52:17.712Z,1.30
2023-03-20T17:55:19.367Z,1.63
2023-03-20T17:58:22.954Z,1.50
2023-03-20T18:01:24.904Z,1.23
2023-03-20T18:04:26.960Z,1.80
2023-03-20T18:07:28.386Z,1.50
2023-03-20T18:10:35.000Z,1.57
2023-03-20T18:13:36.856Z,1.70
2023-03-20T18:16:38.315Z,1.57
2023-03-20T18:19:40.278Z,1.40
2023-03-20T18:22:41.676Z,1.80
2023-03-20T18:25:43.154Z,1.80
2023-03-20T18:28:44.581Z,1.50
2023-03-20T18:31:47.117Z,1.73
2023-03-20T18:34:48.592Z,1.60
2023-03-20T18:37:50.196Z,1.60
2023-03-20T18:40:52.621Z,1.90
2023-03-20T18:43:55.581Z,2.20
2023-03-20T18:46:57.013Z,2.20
2023-03-20T18:49:58.616Z,2.00
2023-03-20T18:53:00.483Z,1.83
2023-03-20T18:56:02.168Z,1.80
2023-03-20T18:59:07.578Z,2.00
2023-03-20T19:02:09.094Z,2.00
2023-03-20T19:05:11.558Z,1.77
2023-03-20T19:08:15.888Z,2.10
2023-03-20T19:11:21.086Z,1.90
2023-03-20T19:14:23.172Z,1.90
2023-03-20T19:17:24.578Z,1.90
2023-03-20T19:20:34.193Z,1.90
2023-03-20T19:23:35.720Z,2.40
2023-03-20T19:26:37.546Z,2.77
2023-03-20T19:29:40.242Z,4.10
2023-03-20T19:32:43.229Z,3.23
2023-03-20T19:36:01.773Z,2.43
2023-03-20T19:39:07.441Z,2.43
2023-03-20T19:42:30.393Z,2.00
2023-03-20T19:45:33.594Z,2.30
2023-03-20T19:48:50.209Z,2.13
2023-03-20T19:51:52.424Z,2.00
2023-03-20T19:55:02.633Z,2.20
2023-03-20T19:58:06.296Z,2.20
2023-03-20T20:01:14.958Z,2.17
2023-03-20T20:04:16.882Z,2.17
2023-03-20T20:08:00.792Z,2.30
2023-03-20T20:10:51.870Z,2.07
2023-03-20T20:14:10.361Z,2.20
2023-03-20T20:17:14.760Z,2.00
2023-03-20T20:20:20.586Z,1.93
2023-03-20T20:23:28.035Z,2.07
2023-03-20T20:26:31.295Z,2.00
2023-03-20T20:29:36.412Z,2.37
2023-03-20T20:32:38.841Z,2.10
2023-03-20T20:36:01.292Z,2.20
2023-03-20T20:39:01.977Z,2.23
2023-03-20T20:42:03.919Z,2.20
2023-03-20T20:45:07.854Z,2.67
2023-03-20T20:48:10.200Z,2.47
2023-03-20T20:51:11.757Z,2.23
2023-03-20T20:54:14.095Z,2.30
2023-03-20T20:57:15.752Z,1.90
2023-03-20T21:00:18.329Z,2.33
2023-03-20T21:03:19.820Z,2.30
2023-03-20T21:06:21.942Z,2.53
2023-03-20T21:09:24.258Z,2.67
2023-03-20T21:12:36.436Z,2.60
2023-03-20T21:15:43.180Z,3.00
2023-03-20T21:18:45.288Z,2.77
2023-03-20T21:21:46.788Z,2.40
2023-03-20T21:24:50.217Z,3.37
2023-03-20T21:27:52.016Z,4.40
2023-03-20T21:31:22.626Z,3.53
2023-03-20T21:34:15.598Z,3.20
2023-03-20T21:38:37.631Z,3.10
2023-03-20T21:40:41.885Z,3.17
2023-03-20T21:43:46.467Z,3.70
2023-03-20T21:54:34.246Z,5.10
2023-03-20T22:07:37.504Z,4.80
2023-03-20T22:14:40.693Z,4.13
2023-03-20T22:24:37.919Z,3.40
2023-03-20T22:44:43.488Z,6.50
2023-03-20T22:47:16.936Z,5.10
2023-03-20T22:50:18.442Z,6.40
2023-03-20T22:53:19.833Z,5.47
2023-03-20T22:56:21.336Z,7.90
2023-03-20T22:59:22.807Z,9.53
2023-03-20T23:02:24.200Z,8.10
2023-03-20T23:05:25.683Z,7.37
2023-03-20T23:08:28.043Z,5.60
2023-03-20T23:11:29.563Z,4.60
2023-03-20T23:14:44.777Z,4.50
2023-03-20T23:17:47.057Z,4.13
2023-03-20T23:20:48.576Z,3.67
2023-03-20T23:23:49.997Z,4.17
2023-03-20T23:26:52.565Z,4.00
2023-03-20T23:29:53.968Z,3.53
2023-03-20T23:32:55.441Z,3.50
2023-03-20T23:36:12.447Z,3.63
2023-03-20T23:39:19.192Z,3.80
2023-03-20T23:42:30.360Z,4.00
2023-03-20T23:45:32.211Z,3.73
2023-03-20T23:48:34.131Z,4.30
2023-03-20T23:51:35.682Z,4.10
2023-03-20T23:54:37.080Z,4.37
2023-03-20T23:57:38.456Z,3.93
